PWSweather.com
Personal Weather Stations
Station Observations
ROSEGARDEN
Rose Garden, Brentwood, CA 94513

Rose GardenBrentwood, CA 94513

Lat: 37.967503, Lon: -121.721004

Elevation: 85

Station Type: La Crosse 2813

High Low Average
Temperature 68.0°F20.0°C 40.7°F4.8°C 48.8°F9.3°C
Dew Point 37.9°F3.3°C 31.0°F-0.6°C 34.4°F1.3°C
Winds 8.9 mph 14.3 kmh Calm Calm 2.0 mph WSW3.2 kmh WSW
Wind Gusts 9.2 mph14.8 kmh 1.1 mph1.8 kmh 4.0 mph6.4 kmh
Humidity 72% 28% 59%
Pressure 30.29 in1025.7 mb 30.18 in1022.0 mb -
Precipitation 0.00 in0.0 mm - -
Hour Temp Dew Point Humidity Winds Wind Gusts Pressure Precip Precip Rate Daily Precip Total
12:02 AM 45.9°F7.7°C 34.0°F1.1°C 63% 4.6 mph WSW7.4 kmh WSW 5.4 mph8.7 kmh 30.18 in1022.0 mb 0.00 in0.0 mm 0.00 in/hr0.0 mm/hr 0.00 in0.0 mm
12:07 AM 45.9°F7.7°C 34.0°F1.1°C 63% 6.1 mph SW9.8 kmh SW 9.2 mph14.8 kmh 30.18 in1022.0 mb 0.00 in0.0 mm 0.00 in/hr0.0 mm/hr 0.00 in0.0 mm
12:12 AM 46.1°F7.8°C 34.1°F1.2°C 63% 4.0 mph SW6.4 kmh SW 9.2 mph14.8 kmh 30.18 in1022.0 mb 0.00 in0.0 mm 0.00 in/hr0.0 mm/hr 0.00 in0.0 mm
12:17 AM 46.1°F7.8°C 34.1°F1.2°C 63% 4.8 mph WSW7.7 kmh WSW 7.6 mph12.2 kmh 30.19 in1022.4 mb 0.00 in0.0 mm 0.00 in/hr0.0 mm/hr 0.00 in0.0 mm
12:23 AM 46.1°F7.8°C 34.1°F1.2°C 63% 5.5 mph WSW8.9 kmh WSW 8.9 mph14.3 kmh 30.19 in1022.4 mb 0.00 in0.0 mm 0.00 in/hr0.0 mm/hr 0.00 in0.0 mm
12:28 AM 45.9°F7.7°C 34.0°F1.1°C 63% 5.4 mph WSW8.7 kmh WSW 8.9 mph14.3 kmh 30.18 in1022.0 mb 0.00 in0.0 mm 0.00 in/hr0.0 mm/hr 0.00 in0.0 mm
12:33 AM 45.9°F7.7°C 34.0°F1.1°C 63% 5.2 mph WSW8.4 kmh WSW 7.8 mph12.6 kmh 30.18 in1022.0 mb 0.00 in0.0 mm 0.00 in/hr0.0 mm/hr 0.00 in0.0 mm
12:38 AM 45.7°F7.6°C 33.9°F1.1°C 63% 5.3 mph WSW8.5 kmh WSW 7.6 mph12.2 kmh 30.18 in1022.0 mb 0.00 in0.0 mm 0.00 in/hr0.0 mm/hr 0.00 in0.0 mm
12:43 AM 45.7°F7.6°C 33.9°F1.1°C 63% 4.7 mph WSW7.6 kmh WSW 6.9 mph11.1 kmh 30.19 in1022.4 mb 0.00 in0.0 mm 0.00 in/hr0.0 mm/hr 0.00 in0.0 mm
12:48 AM 45.5°F7.5°C 33.7°F0.9°C 63% 3.5 mph SW5.6 kmh SW 6.9 mph11.1 kmh 30.19 in1022.4 mb 0.00 in0.0 mm 0.00 in/hr0.0 mm/hr 0.00 in0.0 mm
12:53 AM 45.2°F7.3°C 33.7°F0.9°C 64% 4.2 mph SW6.8 kmh SW 5.6 mph9.0 kmh 30.19 in1022.4 mb 0.00 in0.0 mm 0.00 in/hr0.0 mm/hr 0.00 in0.0 mm
12:58 AM 44.8°F7.1°C 33.4°F0.8°C 64% 3.8 mph SW6.1 kmh SW 5.6 mph9.0 kmh 30.19 in1022.4 mb 0.00 in0.0 mm 0.00 in/hr0.0 mm/hr 0.00 in0.0 mm
01:03 AM 44.8°F7.1°C 33.8°F1.0°C 65% 4.8 mph WSW7.7 kmh WSW 6.7 mph10.8 kmh 30.19 in1022.4 mb 0.00 in0.0 mm 0.00 in/hr0.0 mm/hr 0.00 in0.0 mm
01:08 AM 44.6°F7.0°C 33.6°F0.9°C 65% 2.9 mph WSW4.7 kmh WSW 6.7 mph10.8 kmh 30.19 in1022.4 mb 0.00 in0.0 mm 0.00 in/hr0.0 mm/hr 0.00 in0.0 mm
01:13 AM 44.6°F7.0°C 33.6°F0.9°C 65% 3.8 mph WSW6.1 kmh WSW 5.6 mph9.0 kmh 30.19 in1022.4 mb 0.00 in0.0 mm 0.00 in/hr0.0 mm/hr 0.00 in0.0 mm
01:18 AM 44.5°F6.9°C 33.8°F1.0°C 66% 3.7 mph W6.0 kmh W 5.6 mph9.0 kmh 30.19 in1022.4 mb 0.00 in0.0 mm 0.00 in/hr0.0 mm/hr 0.00 in0.0 mm
01:23 AM 44.5°F6.9°C 33.4°F0.8°C 65% 0.6 mph WSW1.0 kmh WSW 5.4 mph8.7 kmh 30.20 in1022.7 mb 0.00 in0.0 mm 0.00 in/hr0.0 mm/hr 0.00 in0.0 mm
01:29 AM 44.3°F6.8°C 33.2°F0.7°C 65% 1.2 mph SW1.9 kmh SW 4.9 mph7.9 kmh 30.20 in1022.7 mb 0.00 in0.0 mm 0.00 in/hr0.0 mm/hr 0.00 in0.0 mm
01:34 AM 44.1°F6.7°C 33.0°F0.6°C 65% 0.8 mph SW1.3 kmh SW 1.8 mph2.9 kmh 30.20 in1022.7 mb 0.00 in0.0 mm 0.00 in/hr0.0 mm/hr 0.00 in0.0 mm
01:39 AM 43.9°F6.6°C 32.9°F0.5°C 65% 0.8 mph SW1.3 kmh SW 1.8 mph2.9 kmh 30.20 in1022.7 mb 0.00 in0.0 mm 0.00 in/hr0.0 mm/hr 0.00 in0.0 mm
01:44 AM 43.7°F6.5°C 33.1°F0.6°C 66% 1.1 mph SW1.8 kmh SW 1.8 mph2.9 kmh 30.20 in1022.7 mb 0.00 in0.0 mm 0.00 in/hr0.0 mm/hr 0.00 in0.0 mm
01:49 AM 43.7°F6.5°C 33.1°F0.6°C 66% 1.4 mph SW2.3 kmh SW 1.8 mph2.9 kmh 30.20 in1022.7 mb 0.00 in0.0 mm 0.00 in/hr0.0 mm/hr 0.00 in0.0 mm
01:54 AM 43.6°F6.4°C 32.6°F0.3°C 65% 1.1 mph WSW1.8 kmh WSW 2.0 mph3.2 kmh 30.21 in1023.0 mb 0.00 in0.0 mm 0.00 in/hr0.0 mm/hr 0.00 in0.0 mm
01:59 AM 43.4°F6.3°C 32.4°F0.2°C 65% 1.8 mph WSW2.9 kmh WSW 2.5 mph4.0 kmh 30.21 in1023.0 mb 0.00 in0.0 mm 0.00 in/hr0.0 mm/hr 0.00 in0.0 mm
02:04 AM 43.2°F6.2°C 32.6°F0.3°C 66% 1.9 mph WSW3.1 kmh WSW 2.5 mph4.0 kmh 30.20 in1022.7 mb 0.00 in0.0 mm 0.00 in/hr0.0 mm/hr 0.00 in0.0 mm
02:10 AM 43.0°F6.1°C 32.9°F0.5°C 67% 2.0 mph W3.2 kmh W 2.9 mph4.7 kmh 30.21 in1023.0 mb 0.00 in0.0 mm 0.00 in/hr0.0 mm/hr 0.00 in0.0 mm
02:15 AM 43.2°F6.2°C 33.4°F0.8°C 68% 1.9 mph WSW3.1 kmh WSW 4.3 mph6.9 kmh 30.21 in1023.0 mb 0.00 in0.0 mm 0.00 in/hr0.0 mm/hr 0.00 in0.0 mm
02:20 AM 43.4°F6.3°C 33.1°F0.6°C 67% 2.2 mph WSW3.5 kmh WSW 4.3 mph6.9 kmh 30.21 in1023.0 mb 0.00 in0.0 mm 0.00 in/hr0.0 mm/hr 0.00 in0.0 mm
02:25 AM 43.4°F6.3°C 32.8°F0.4°C 66% 2.1 mph SW3.4 kmh SW 3.6 mph5.8 kmh 30.21 in1023.0 mb 0.00 in0.0 mm 0.00 in/hr0.0 mm/hr 0.00 in0.0 mm
02:30 AM 43.4°F6.3°C 33.1°F0.6°C 67% 1.3 mph W2.1 kmh W 2.5 mph4.0 kmh 30.21 in1023.0 mb 0.00 in0.0 mm 0.00 in/hr0.0 mm/hr 0.00 in0.0 mm
02:35 AM 43.4°F6.3°C 32.8°F0.4°C 66% 0.5 mph WNW0.8 kmh WNW 2.0 mph3.2 kmh 30.21 in1023.0 mb 0.00 in0.0 mm 0.00 in/hr0.0 mm/hr 0.00 in0.0 mm
02:40 AM 43.2°F6.2°C 33.0°F0.6°C 67% 1.6 mph W2.6 kmh W 2.5 mph4.0 kmh 30.21 in1023.0 mb 0.00 in0.0 mm 0.00 in/hr0.0 mm/hr 0.00 in0.0 mm
02:44 AM 43.2°F6.2°C 32.6°F0.3°C 66% 0.6 mph NW1.0 kmh NW 2.5 mph4.0 kmh 30.21 in1023.0 mb 0.00 in0.0 mm 0.00 in/hr0.0 mm/hr 0.00 in0.0 mm
02:49 AM 42.8°F6.0°C 32.2°F0.1°C 66% 0.2 mph W0.3 kmh W 2.5 mph4.0 kmh 30.21 in1023.0 mb 0.00 in0.0 mm 0.00 in/hr0.0 mm/hr 0.00 in0.0 mm
02:54 AM 42.7°F5.9°C 32.0°F0.0°C 66% 0.8 mph WSW1.3 kmh WSW 1.1 mph1.8 kmh 30.21 in1023.0 mb 0.00 in0.0 mm 0.00 in/hr0.0 mm/hr 0.00 in0.0 mm
02:59 AM 42.3°F5.7°C 32.1°F0.1°C 67% 1.3 mph WSW2.1 kmh WSW 2.0 mph3.2 kmh 30.21 in1023.0 mb 0.00 in0.0 mm 0.00 in/hr0.0 mm/hr 0.00 in0.0 mm
03:04 AM 41.9°F5.5°C 31.8°F-0.1°C 67% 1.3 mph WSW2.1 kmh WSW 2.0 mph3.2 kmh 30.21 in1023.0 mb 0.00 in0.0 mm 0.00 in/hr0.0 mm/hr 0.00 in0.0 mm
03:09 AM 41.8°F5.4°C 31.6°F-0.2°C 67% 1.5 mph WSW2.4 kmh WSW 1.8 mph2.9 kmh 30.21 in1023.0 mb 0.00 in0.0 mm 0.00 in/hr0.0 mm/hr 0.00 in0.0 mm
03:15 AM 41.4°F5.2°C 31.2°F-0.4°C 67% 0.9 mph WSW1.4 kmh WSW 1.8 mph2.9 kmh 30.21 in1023.0 mb 0.00 in0.0 mm 0.00 in/hr0.0 mm/hr 0.00 in0.0 mm
03:20 AM 41.2°F5.1°C 31.1°F-0.5°C 67% 0.6 mph WSW1.0 kmh WSW 1.6 mph2.6 kmh 30.21 in1023.0 mb 0.00 in0.0 mm 0.00 in/hr0.0 mm/hr 0.00 in0.0 mm
03:25 AM 41.0°F5.0°C 31.3°F-0.4°C 68% 1.0 mph S1.6 kmh S 1.6 mph2.6 kmh 30.21 in1023.0 mb 0.00 in0.0 mm 0.00 in/hr0.0 mm/hr 0.00 in0.0 mm
03:30 AM 41.2°F5.1°C 32.6°F0.3°C 71% 2.1 mph SW3.4 kmh SW 3.1 mph5.0 kmh 30.21 in1023.0 mb 0.00 in0.0 mm 0.00 in/hr0.0 mm/hr 0.00 in0.0 mm
03:35 AM 41.2°F5.1°C 31.9°F-0.1°C 69% 2.0 mph SW3.2 kmh SW 3.1 mph5.0 kmh 30.21 in1023.0 mb 0.00 in0.0 mm 0.00 in/hr0.0 mm/hr 0.00 in0.0 mm
03:40 AM 41.0°F5.0°C 31.3°F-0.4°C 68% 1.2 mph WSW1.9 kmh WSW 2.7 mph4.3 kmh 30.21 in1023.0 mb 0.00 in0.0 mm 0.00 in/hr0.0 mm/hr 0.00 in0.0 mm
03:45 AM 40.7°F4.8°C 31.0°F-0.6°C 68% 1.0 mph WSW1.6 kmh WSW 2.5 mph4.0 kmh 30.21 in1023.0 mb 0.00 in0.0 mm 0.00 in/hr0.0 mm/hr 0.00 in0.0 mm
03:50 AM 40.7°F4.8°C 31.3°F-0.4°C 69% 2.1 mph WSW3.4 kmh WSW 3.4 mph5.5 kmh 30.21 in1023.0 mb 0.00 in0.0 mm 0.00 in/hr0.0 mm/hr 0.00 in0.0 mm
03:55 AM 40.7°F4.8°C 31.3°F-0.4°C 69% 1.8 mph WSW2.9 kmh WSW 3.4 mph5.5 kmh 30.21 in1023.0 mb 0.00 in0.0 mm 0.00 in/hr0.0 mm/hr 0.00 in0.0 mm
04:00 AM 40.7°F4.8°C 31.3°F-0.4°C 69% 1.0 mph SW1.6 kmh SW 2.9 mph4.7 kmh 30.21 in1023.0 mb 0.00 in0.0 mm 0.00 in/hr0.0 mm/hr 0.00 in0.0 mm
04:06 AM 40.9°F4.9°C 31.9°F-0.1°C 70% 2.4 mph SW3.9 kmh SW 3.6 mph5.8 kmh 30.21 in1023.0 mb 0.00 in0.0 mm 0.00 in/hr0.0 mm/hr 0.00 in0.0 mm
04:11 AM 40.9°F4.9°C 31.9°F-0.1°C 70% 1.8 mph SW2.9 kmh SW 3.6 mph5.8 kmh 30.22 in1023.4 mb 0.00 in0.0 mm 0.00 in/hr0.0 mm/hr 0.00 in0.0 mm
04:16 AM 40.9°F4.9°C 31.9°F-0.1°C 70% 2.0 mph WSW3.2 kmh WSW 3.1 mph5.0 kmh 30.22 in1023.4 mb 0.00 in0.0 mm 0.00 in/hr0.0 mm/hr 0.00 in0.0 mm
04:21 AM 40.7°F4.8°C 31.3°F-0.4°C 69% 1.8 mph WSW2.9 kmh WSW 3.1 mph5.0 kmh 30.22 in1023.4 mb 0.00 in0.0 mm 0.00 in/hr0.0 mm/hr 0.00 in0.0 mm
04:26 AM 40.7°F4.8°C 32.1°F0.1°C 71% 3.5 mph WSW5.6 kmh WSW 4.7 mph7.6 kmh 30.22 in1023.4 mb 0.00 in0.0 mm 0.00 in/hr0.0 mm/hr 0.00 in0.0 mm
04:31 AM 40.9°F4.9°C 32.2°F0.1°C 71% 3.6 mph WSW5.8 kmh WSW 5.4 mph8.7 kmh 30.22 in1023.4 mb 0.00 in0.0 mm 0.00 in/hr0.0 mm/hr 0.00 in0.0 mm
04:36 AM 41.0°F5.0°C 32.4°F0.2°C 71% 3.8 mph WSW6.1 kmh WSW 5.4 mph8.7 kmh 30.22 in1023.4 mb 0.00 in0.0 mm 0.00 in/hr0.0 mm/hr 0.00 in0.0 mm
04:41 AM 41.2°F5.1°C 32.6°F0.3°C 71% 2.7 mph WSW4.3 kmh WSW 4.7 mph7.6 kmh 30.22 in1023.4 mb 0.00 in0.0 mm 0.00 in/hr0.0 mm/hr 0.00 in0.0 mm
04:47 AM 41.2°F5.1°C 32.2°F0.1°C 70% 2.5 mph WSW4.0 kmh WSW 4.0 mph6.4 kmh 30.22 in1023.4 mb 0.00 in0.0 mm 0.00 in/hr0.0 mm/hr 0.00 in0.0 mm
04:52 AM 41.2°F5.1°C 32.6°F0.3°C 71% 2.9 mph SW4.7 kmh SW 4.7 mph7.6 kmh 30.22 in1023.4 mb 0.00 in0.0 mm 0.00 in/hr0.0 mm/hr 0.00 in0.0 mm
04:57 AM 41.2°F5.1°C 32.6°F0.3°C 71% 2.9 mph SW4.7 kmh SW 4.7 mph7.6 kmh 30.22 in1023.4 mb 0.00 in0.0 mm 0.00 in/hr0.0 mm/hr 0.00 in0.0 mm
05:02 AM 41.2°F5.1°C 32.2°F0.1°C 70% 2.1 mph SW3.4 kmh SW 4.7 mph7.6 kmh 30.22 in1023.4 mb 0.00 in0.0 mm 0.00 in/hr0.0 mm/hr 0.00 in0.0 mm
05:07 AM 41.0°F5.0°C 32.4°F0.2°C 71% 1.6 mph SW2.6 kmh SW 4.7 mph7.6 kmh 30.23 in1023.7 mb 0.00 in0.0 mm 0.00 in/hr0.0 mm/hr 0.00 in0.0 mm
05:12 AM 41.0°F5.0°C 32.4°F0.2°C 71% 1.4 mph SSW2.3 kmh SSW 2.9 mph4.7 kmh 30.23 in1023.7 mb 0.00 in0.0 mm 0.00 in/hr0.0 mm/hr 0.00 in0.0 mm
05:17 AM 41.0°F5.0°C 32.4°F0.2°C 71% 1.4 mph SW2.3 kmh SW 2.9 mph4.7 kmh 30.23 in1023.7 mb 0.00 in0.0 mm 0.00 in/hr0.0 mm/hr 0.00 in0.0 mm
05:22 AM 40.9°F4.9°C 32.2°F0.1°C 71% 1.3 mph SW2.1 kmh SW 2.9 mph4.7 kmh 30.23 in1023.7 mb 0.00 in0.0 mm 0.00 in/hr0.0 mm/hr 0.00 in0.0 mm
05:27 AM 40.9°F4.9°C 32.2°F0.1°C 71% 1.6 mph SW2.6 kmh SW 2.7 mph4.3 kmh 30.23 in1023.7 mb 0.00 in0.0 mm 0.00 in/hr0.0 mm/hr 0.00 in0.0 mm
05:32 AM 40.7°F4.8°C 32.1°F0.1°C 71% 1.5 mph WSW2.4 kmh WSW 2.7 mph4.3 kmh 30.23 in1023.7 mb 0.00 in0.0 mm 0.00 in/hr0.0 mm/hr 0.00 in0.0 mm
05:37 AM 40.7°F4.8°C 32.1°F0.1°C 71% 1.6 mph WSW2.6 kmh WSW 2.7 mph4.3 kmh 30.23 in1023.7 mb 0.00 in0.0 mm 0.00 in/hr0.0 mm/hr 0.00 in0.0 mm
05:42 AM 40.7°F4.8°C 32.1°F0.1°C 71% 2.0 mph WSW3.2 kmh WSW 3.1 mph5.0 kmh 30.23 in1023.7 mb 0.00 in0.0 mm 0.00 in/hr0.0 mm/hr 0.00 in0.0 mm
05:48 AM 40.7°F4.8°C 32.1°F0.1°C 71% 1.4 mph WSW2.3 kmh WSW 3.1 mph5.0 kmh 30.23 in1023.7 mb 0.00 in0.0 mm 0.00 in/hr0.0 mm/hr 0.00 in0.0 mm
05:53 AM 40.7°F4.8°C 32.1°F0.1°C 71% 1.1 mph WSW1.8 kmh WSW 2.9 mph4.7 kmh 30.23 in1023.7 mb 0.00 in0.0 mm 0.00 in/hr0.0 mm/hr 0.00 in0.0 mm
05:58 AM 40.7°F4.8°C 32.1°F0.1°C 71% 0.5 mph SW0.8 kmh SW 2.5 mph4.0 kmh 30.23 in1023.7 mb 0.00 in0.0 mm 0.00 in/hr0.0 mm/hr 0.00 in0.0 mm
06:03 AM 40.7°F4.8°C 32.1°F0.1°C 71% 0.7 mph SSW1.1 kmh SSW 1.1 mph1.8 kmh 30.24 in1024.0 mb 0.00 in0.0 mm 0.00 in/hr0.0 mm/hr 0.00 in0.0 mm
06:08 AM 40.9°F4.9°C 32.5°F0.3°C 72% 1.0 mph SSW1.6 kmh SSW 1.3 mph2.1 kmh 30.24 in1024.0 mb 0.00 in0.0 mm 0.00 in/hr0.0 mm/hr 0.00 in0.0 mm
06:13 AM 40.9°F4.9°C 32.2°F0.1°C 71% 1.4 mph SW2.3 kmh SW 1.8 mph2.9 kmh 30.24 in1024.0 mb 0.00 in0.0 mm 0.00 in/hr0.0 mm/hr 0.00 in0.0 mm
06:18 AM 40.7°F4.8°C 32.1°F0.1°C 71% 0.7 mph SW1.1 kmh SW 1.8 mph2.9 kmh 30.25 in1024.4 mb 0.00 in0.0 mm 0.00 in/hr0.0 mm/hr 0.00 in0.0 mm
06:23 AM 40.7°F4.8°C 32.1°F0.1°C 71% 1.2 mph WSW1.9 kmh WSW 1.6 mph2.6 kmh 30.25 in1024.4 mb 0.00 in0.0 mm 0.00 in/hr0.0 mm/hr 0.00 in0.0 mm
06:28 AM 40.7°F4.8°C 32.1°F0.1°C 71% 0.6 mph WSW1.0 kmh WSW 1.6 mph2.6 kmh 30.25 in1024.4 mb 0.00 in0.0 mm 0.00 in/hr0.0 mm/hr 0.00 in0.0 mm
06:33 AM 40.9°F4.9°C 32.2°F0.1°C 71% 0.9 mph W1.4 kmh W 1.6 mph2.6 kmh 30.26 in1024.7 mb 0.00 in0.0 mm 0.00 in/hr0.0 mm/hr 0.00 in0.0 mm
06:38 AM 41.0°F5.0°C 32.4°F0.2°C 71% Calm Calm 1.6 mph2.6 kmh 30.26 in1024.7 mb 0.00 in0.0 mm 0.00 in/hr0.0 mm/hr 0.00 in0.0 mm
06:42 AM 41.4°F5.2°C 32.8°F0.4°C 71% 0.3 mph W0.5 kmh W 1.3 mph2.1 kmh 30.26 in1024.7 mb 0.00 in0.0 mm 0.00 in/hr0.0 mm/hr 0.00 in0.0 mm
06:47 AM 41.6°F5.3°C 33.0°F0.6°C 71% 1.1 mph W1.8 kmh W 1.8 mph2.9 kmh 30.26 in1024.7 mb 0.00 in0.0 mm 0.00 in/hr0.0 mm/hr 0.00 in0.0 mm
06:53 AM 41.9°F5.5°C 33.3°F0.7°C 71% 0.6 mph NW1.0 kmh NW 1.8 mph2.9 kmh 30.26 in1024.7 mb 0.00 in0.0 mm 0.00 in/hr0.0 mm/hr 0.00 in0.0 mm
06:58 AM 42.3°F5.7°C 33.7°F0.9°C 71% 0.8 mph WNW1.3 kmh WNW 1.6 mph2.6 kmh 30.26 in1024.7 mb 0.00 in0.0 mm 0.00 in/hr0.0 mm/hr 0.00 in0.0 mm
07:03 AM 42.7°F5.9°C 34.0°F1.1°C 71% 0.4 mph WNW0.6 kmh WNW 1.6 mph2.6 kmh 30.26 in1024.7 mb 0.00 in0.0 mm 0.00 in/hr0.0 mm/hr 0.00 in0.0 mm
07:08 AM 43.2°F6.2°C 34.2°F1.2°C 70% 0.5 mph WNW0.8 kmh WNW 1.3 mph2.1 kmh 30.27 in1025.1 mb 0.00 in0.0 mm 0.00 in/hr0.0 mm/hr 0.00 in0.0 mm
07:13 AM 43.7°F6.5°C 35.0°F1.7°C 71% 1.0 mph WNW1.6 kmh WNW 2.0 mph3.2 kmh 30.27 in1025.1 mb 0.00 in0.0 mm 0.00 in/hr0.0 mm/hr 0.00 in0.0 mm
07:18 AM 44.3°F6.8°C 35.1°F1.7°C 70% 1.8 mph W2.9 kmh W 2.7 mph4.3 kmh 30.27 in1025.1 mb 0.00 in0.0 mm 0.00 in/hr0.0 mm/hr 0.00 in0.0 mm
07:23 AM 44.8°F7.1°C 35.3°F1.8°C 69% 0.5 mph NNW0.8 kmh NNW 2.7 mph4.3 kmh 30.27 in1025.1 mb 0.00 in0.0 mm 0.00 in/hr0.0 mm/hr 0.00 in0.0 mm
07:28 AM 45.5°F7.5°C 35.6°F2.0°C 68% 0.9 mph NW1.4 kmh NW 2.0 mph3.2 kmh 30.27 in1025.1 mb 0.00 in0.0 mm 0.00 in/hr0.0 mm/hr 0.00 in0.0 mm
07:33 AM 46.1°F7.8°C 36.1°F2.3°C 68% 0.8 mph NNW1.3 kmh NNW 2.0 mph3.2 kmh 30.27 in1025.1 mb 0.00 in0.0 mm 0.00 in/hr0.0 mm/hr 0.00 in0.0 mm
07:38 AM 47.0°F8.3°C 36.5°F2.5°C 67% 1.0 mph WSW1.6 kmh WSW 1.8 mph2.9 kmh 30.27 in1025.1 mb 0.00 in0.0 mm 0.00 in/hr0.0 mm/hr 0.00 in0.0 mm
07:43 AM 47.3°F8.5°C 36.6°F2.6°C 66% 0.7 mph NNW1.1 kmh NNW 1.6 mph2.6 kmh 30.27 in1025.1 mb 0.00 in0.0 mm 0.00 in/hr0.0 mm/hr 0.00 in0.0 mm
07:48 AM 47.9°F8.8°C 36.6°F2.6°C 65% 0.3 mph NW0.5 kmh NW 1.1 mph1.8 kmh 30.27 in1025.1 mb 0.00 in0.0 mm 0.00 in/hr0.0 mm/hr 0.00 in0.0 mm
07:53 AM 48.4°F9.1°C 36.8°F2.7°C 64% 0.7 mph N1.1 kmh N 1.3 mph2.1 kmh 30.27 in1025.1 mb 0.00 in0.0 mm 0.00 in/hr0.0 mm/hr 0.00 in0.0 mm
07:58 AM 49.0°F9.4°C 37.3°F2.9°C 64% 0.6 mph N1.0 kmh N 1.3 mph2.1 kmh 30.27 in1025.1 mb 0.00 in0.0 mm 0.00 in/hr0.0 mm/hr 0.00 in0.0 mm
08:03 AM 49.3°F9.6°C 37.3°F2.9°C 63% 0.3 mph N0.5 kmh N 1.3 mph2.1 kmh 30.27 in1025.1 mb 0.00 in0.0 mm 0.00 in/hr0.0 mm/hr 0.00 in0.0 mm
08:09 AM 50.0°F10.0°C 37.5°F3.1°C 62% 1.0 mph N1.6 kmh N 1.8 mph2.9 kmh 30.27 in1025.1 mb 0.00 in0.0 mm 0.00 in/hr0.0 mm/hr 0.00 in0.0 mm
08:16 AM 50.8°F10.4°C 36.9°F2.7°C 59% 2.7 mph N4.3 kmh N 3.4 mph5.5 kmh 30.28 in1025.4 mb 0.00 in0.0 mm 0.00 in/hr0.0 mm/hr 0.00 in0.0 mm
08:22 AM 51.3°F10.7°C 36.6°F2.6°C 57% 2.2 mph WNW3.5 kmh WNW 4.0 mph6.4 kmh 30.28 in1025.4 mb 0.00 in0.0 mm 0.00 in/hr0.0 mm/hr 0.00 in0.0 mm
08:30 AM 51.1°F10.6°C 36.8°F2.7°C 58% 1.0 mph NNW1.6 kmh NNW 4.0 mph6.4 kmh 30.28 in1025.4 mb 0.00 in0.0 mm 0.00 in/hr0.0 mm/hr 0.00 in0.0 mm
08:35 AM 51.5°F10.8°C 37.1°F2.8°C 58% 0.8 mph NW1.3 kmh NW 1.8 mph2.9 kmh 30.28 in1025.4 mb 0.00 in0.0 mm 0.00 in/hr0.0 mm/hr 0.00 in0.0 mm
08:40 AM 51.8°F11.0°C 37.0°F2.8°C 57% 3.9 mph W6.3 kmh W 4.7 mph7.6 kmh 30.28 in1025.4 mb 0.00 in0.0 mm 0.00 in/hr0.0 mm/hr 0.00 in0.0 mm
08:46 AM 52.2°F11.2°C 37.4°F3.0°C 57% 0.9 mph NNW1.4 kmh NNW 4.7 mph7.6 kmh 30.28 in1025.4 mb 0.00 in0.0 mm 0.00 in/hr0.0 mm/hr 0.00 in0.0 mm
08:51 AM 53.1°F11.7°C 37.7°F3.2°C 56% 3.0 mph N4.8 kmh N 4.0 mph6.4 kmh 30.28 in1025.4 mb 0.00 in0.0 mm 0.00 in/hr0.0 mm/hr 0.00 in0.0 mm
08:57 AM 53.6°F12.0°C 37.8°F3.2°C 55% 1.4 mph NNW2.3 kmh NNW 4.7 mph7.6 kmh 30.28 in1025.4 mb 0.00 in0.0 mm 0.00 in/hr0.0 mm/hr 0.00 in0.0 mm
09:02 AM 54.0°F12.2°C 37.2°F2.9°C 53% 2.9 mph N4.7 kmh N 6.3 mph10.1 kmh 30.28 in1025.4 mb 0.00 in0.0 mm 0.00 in/hr0.0 mm/hr 0.00 in0.0 mm
09:07 AM 54.0°F12.2°C 37.2°F2.9°C 53% 2.1 mph NW3.4 kmh NW 6.3 mph10.1 kmh 30.29 in1025.7 mb 0.00 in0.0 mm 0.00 in/hr0.0 mm/hr 0.00 in0.0 mm
09:12 AM 54.0°F12.2°C 36.3°F2.4°C 51% 2.1 mph WNW3.4 kmh WNW 5.4 mph8.7 kmh 30.29 in1025.7 mb 0.00 in0.0 mm 0.00 in/hr0.0 mm/hr 0.00 in0.0 mm
09:18 AM 54.0°F12.2°C 36.3°F2.4°C 51% 1.9 mph NNW3.1 kmh NNW 5.4 mph8.7 kmh 30.28 in1025.4 mb 0.00 in0.0 mm 0.00 in/hr0.0 mm/hr 0.00 in0.0 mm
09:25 AM 54.7°F12.6°C 36.5°F2.5°C 50% 3.4 mph N5.5 kmh N 4.7 mph7.6 kmh 30.29 in1025.7 mb 0.00 in0.0 mm 0.00 in/hr0.0 mm/hr 0.00 in0.0 mm
09:31 AM 55.3°F12.9°C 36.9°F2.7°C 50% 3.9 mph N6.3 kmh N 6.0 mph9.7 kmh 30.29 in1025.7 mb 0.00 in0.0 mm 0.00 in/hr0.0 mm/hr 0.00 in0.0 mm
09:36 AM 55.6°F13.1°C 37.3°F2.9°C 50% 1.2 mph NW1.9 kmh NW 6.5 mph10.5 kmh 30.29 in1025.7 mb 0.00 in0.0 mm 0.00 in/hr0.0 mm/hr 0.00 in0.0 mm
09:41 AM 55.8°F13.2°C 36.9°F2.7°C 49% 1.7 mph N2.7 kmh N 6.5 mph10.5 kmh 30.29 in1025.7 mb 0.00 in0.0 mm 0.00 in/hr0.0 mm/hr 0.00 in0.0 mm
09:46 AM 56.0°F13.3°C 37.1°F2.8°C 49% 4.5 mph N7.2 kmh N 6.3 mph10.1 kmh 30.29 in1025.7 mb 0.00 in0.0 mm 0.00 in/hr0.0 mm/hr 0.00 in0.0 mm
09:52 AM 56.3°F13.5°C 36.8°F2.7°C 48% 5.5 mph N8.9 kmh N 7.2 mph11.6 kmh 30.29 in1025.7 mb 0.00 in0.0 mm 0.00 in/hr0.0 mm/hr 0.00 in0.0 mm
09:59 AM 56.5°F13.6°C 37.6°F3.1°C 49% 1.5 mph NW2.4 kmh NW 7.2 mph11.6 kmh 30.29 in1025.7 mb 0.00 in0.0 mm 0.00 in/hr0.0 mm/hr 0.00 in0.0 mm
10:04 AM 56.5°F13.6°C 37.0°F2.8°C 48% 4.1 mph N6.6 kmh N 5.6 mph9.0 kmh 30.29 in1025.7 mb 0.00 in0.0 mm 0.00 in/hr0.0 mm/hr 0.00 in0.0 mm
10:09 AM 56.7°F13.7°C 36.6°F2.6°C 47% 2.5 mph NW4.0 kmh NW 5.6 mph9.0 kmh 30.28 in1025.4 mb 0.00 in0.0 mm 0.00 in/hr0.0 mm/hr 0.00 in0.0 mm
10:15 AM 56.9°F13.8°C 37.4°F3.0°C 48% 2.7 mph NW4.3 kmh NW 4.7 mph7.6 kmh 30.28 in1025.4 mb 0.00 in0.0 mm 0.00 in/hr0.0 mm/hr 0.00 in0.0 mm
10:20 AM 56.9°F13.8°C 36.8°F2.7°C 47% 2.3 mph NW3.7 kmh NW 6.3 mph10.1 kmh 30.28 in1025.4 mb 0.00 in0.0 mm 0.00 in/hr0.0 mm/hr 0.00 in0.0 mm
10:25 AM 57.4°F14.1°C 37.4°F3.0°C 47% 2.7 mph N4.3 kmh N 6.3 mph10.1 kmh 30.28 in1025.4 mb 0.00 in0.0 mm 0.00 in/hr0.0 mm/hr 0.00 in0.0 mm
10:30 AM 58.0°F14.4°C 37.8°F3.2°C 47% 2.8 mph NW4.5 kmh NW 4.7 mph7.6 kmh 30.28 in1025.4 mb 0.00 in0.0 mm 0.00 in/hr0.0 mm/hr 0.00 in0.0 mm
10:35 AM 58.0°F14.4°C 37.3°F2.9°C 46% 3.6 mph N5.8 kmh N 5.6 mph9.0 kmh 30.29 in1025.7 mb 0.00 in0.0 mm 0.00 in/hr0.0 mm/hr 0.00 in0.0 mm
10:40 AM 58.0°F14.4°C 37.8°F3.2°C 47% 2.8 mph N4.5 kmh N 6.3 mph10.1 kmh 30.28 in1025.4 mb 0.00 in0.0 mm 0.00 in/hr0.0 mm/hr 0.00 in0.0 mm
10:44 AM 58.3°F14.6°C 37.5°F3.1°C 46% 3.8 mph NNE6.1 kmh NNE 6.3 mph10.1 kmh 30.28 in1025.4 mb 0.00 in0.0 mm 0.00 in/hr0.0 mm/hr 0.00 in0.0 mm
10:49 AM 58.7°F14.8°C 37.9°F3.3°C 46% 2.6 mph NNW4.2 kmh NNW 5.4 mph8.7 kmh 30.28 in1025.4 mb 0.00 in0.0 mm 0.00 in/hr0.0 mm/hr 0.00 in0.0 mm
10:55 AM 58.7°F14.8°C 37.3°F2.9°C 45% 3.0 mph W4.8 kmh W 4.7 mph7.6 kmh 30.28 in1025.4 mb 0.00 in0.0 mm 0.00 in/hr0.0 mm/hr 0.00 in0.0 mm
11:00 AM 58.7°F14.8°C 37.3°F2.9°C 45% 1.5 mph WNW2.4 kmh WNW 4.7 mph7.6 kmh 30.28 in1025.4 mb 0.00 in0.0 mm 0.00 in/hr0.0 mm/hr 0.00 in0.0 mm
11:05 AM 59.0°F15.0°C 37.1°F2.8°C 44% 3.9 mph N6.3 kmh N 5.8 mph9.3 kmh 30.27 in1025.1 mb 0.00 in0.0 mm 0.00 in/hr0.0 mm/hr 0.00 in0.0 mm
11:10 AM 59.6°F15.3°C 37.5°F3.1°C 44% 1.5 mph NW2.4 kmh NW 5.8 mph9.3 kmh 30.27 in1025.1 mb 0.00 in0.0 mm 0.00 in/hr0.0 mm/hr 0.00 in0.0 mm
11:15 AM 59.9°F15.5°C 37.9°F3.3°C 44% 2.1 mph NW3.4 kmh NW 4.9 mph7.9 kmh 30.27 in1025.1 mb 0.00 in0.0 mm 0.00 in/hr0.0 mm/hr 0.00 in0.0 mm
11:21 AM 60.3°F15.7°C 37.6°F3.1°C 43% 2.6 mph NNW4.2 kmh NNW 5.4 mph8.7 kmh 30.27 in1025.1 mb 0.00 in0.0 mm 0.00 in/hr0.0 mm/hr 0.00 in0.0 mm
11:27 AM 60.8°F16.0°C 37.5°F3.1°C 42% 2.2 mph NW3.5 kmh NW 4.7 mph7.6 kmh 30.27 in1025.1 mb 0.00 in0.0 mm 0.00 in/hr0.0 mm/hr 0.00 in0.0 mm
11:32 AM 61.6°F16.4°C 37.6°F3.1°C 41% 3.2 mph N5.1 kmh N 5.4 mph8.7 kmh 30.27 in1025.1 mb 0.00 in0.0 mm 0.00 in/hr0.0 mm/hr 0.00 in0.0 mm
11:38 AM 61.9°F16.6°C 37.4°F3.0°C 40% 4.2 mph NE6.8 kmh NE 6.3 mph10.1 kmh 30.27 in1025.1 mb 0.00 in0.0 mm 0.00 in/hr0.0 mm/hr 0.00 in0.0 mm
11:45 AM 62.3°F16.8°C 36.9°F2.7°C 39% 1.6 mph NNW2.6 kmh NNW 6.3 mph10.1 kmh 30.26 in1024.7 mb 0.00 in0.0 mm 0.00 in/hr0.0 mm/hr 0.00 in0.0 mm
11:50 AM 62.6°F17.0°C 37.3°F2.9°C 39% 1.3 mph NW2.1 kmh NW 5.6 mph9.0 kmh 30.26 in1024.7 mb 0.00 in0.0 mm 0.00 in/hr0.0 mm/hr 0.00 in0.0 mm
11:55 AM 63.0°F17.2°C 35.5°F1.9°C 36% 2.3 mph NW3.7 kmh NW 5.1 mph8.2 kmh 30.26 in1024.7 mb 0.00 in0.0 mm 0.00 in/hr0.0 mm/hr 0.00 in0.0 mm
12:00 PM 62.8°F17.1°C 36.0°F2.2°C 37% 3.2 mph NNW5.1 kmh NNW 5.1 mph8.2 kmh 30.26 in1024.7 mb 0.00 in0.0 mm 0.00 in/hr0.0 mm/hr 0.00 in0.0 mm
12:06 PM 63.4°F17.4°C 36.5°F2.5°C 37% 2.9 mph NE4.7 kmh NE 4.7 mph7.6 kmh 30.26 in1024.7 mb 0.00 in0.0 mm 0.00 in/hr0.0 mm/hr 0.00 in0.0 mm
12:12 PM 63.7°F17.6°C 34.7°F1.5°C 34% 3.6 mph NNW5.8 kmh NNW 5.1 mph8.2 kmh 30.26 in1024.7 mb 0.00 in0.0 mm 0.00 in/hr0.0 mm/hr 0.00 in0.0 mm
12:17 PM 63.7°F17.6°C 35.4°F1.9°C 35% 1.8 mph NE2.9 kmh NE 5.1 mph8.2 kmh 30.26 in1024.7 mb 0.00 in0.0 mm 0.00 in/hr0.0 mm/hr 0.00 in0.0 mm
12:23 PM 64.3°F17.9°C 35.1°F1.7°C 34% 3.4 mph NNE5.5 kmh NNE 7.2 mph11.6 kmh 30.26 in1024.7 mb 0.00 in0.0 mm 0.00 in/hr0.0 mm/hr 0.00 in0.0 mm
12:28 PM 64.4°F18.0°C 35.3°F1.8°C 34% 2.1 mph NNW3.4 kmh NNW 7.2 mph11.6 kmh 30.25 in1024.4 mb 0.00 in0.0 mm 0.00 in/hr0.0 mm/hr 0.00 in0.0 mm
12:34 PM 65.0°F18.3°C 35.0°F1.7°C 33% 3.4 mph WSW5.5 kmh WSW 4.9 mph7.9 kmh 30.25 in1024.4 mb 0.00 in0.0 mm 0.00 in/hr0.0 mm/hr 0.00 in0.0 mm
12:41 PM 65.7°F18.7°C 35.7°F2.1°C 33% 1.5 mph NNW2.4 kmh NNW 4.7 mph7.6 kmh 30.25 in1024.4 mb 0.00 in0.0 mm 0.00 in/hr0.0 mm/hr 0.00 in0.0 mm
12:47 PM 65.9°F18.8°C 34.4°F1.3°C 31% 4.7 mph NE7.6 kmh NE 6.9 mph11.1 kmh 30.25 in1024.4 mb 0.00 in0.0 mm 0.00 in/hr0.0 mm/hr 0.00 in0.0 mm
12:52 PM 65.7°F18.7°C 35.7°F2.1°C 33% 4.9 mph N7.9 kmh N 8.9 mph14.3 kmh 30.25 in1024.4 mb 0.00 in0.0 mm 0.00 in/hr0.0 mm/hr 0.00 in0.0 mm
12:55 PM 65.9°F18.8°C 35.8°F2.1°C 33% 2.3 mph NW3.7 kmh NW 8.9 mph14.3 kmh 30.25 in1024.4 mb 0.00 in0.0 mm 0.00 in/hr0.0 mm/hr 0.00 in0.0 mm
01:00 PM 65.9°F18.8°C 35.8°F2.1°C 33% 4.7 mph 7.6 kmh 6.5 mph10.5 kmh 30.25 in1024.4 mb 0.00 in0.0 mm 0.00 in/hr0.0 mm/hr 0.00 in0.0 mm
02:00 PM 67.3°F19.6°C 32.9°F0.5°C 28% 8.9 mph NE14.3 kmh NE 8.9 mph14.3 kmh 30.22 in1023.4 mb 0.00 in0.0 mm 0.00 in/hr0.0 mm/hr 0.00 in0.0 mm
02:59 PM 68.0°F20.0°C 34.5°F1.4°C 29% 4.0 mph 6.4 kmh 4.0 mph6.4 kmh 30.20 in1022.7 mb 0.00 in0.0 mm 0.00 in/hr0.0 mm/hr 0.00 in0.0 mm
04:00 PM 66.8°F19.3°C 32.5°F0.3°C 28% 6.0 mph NNE9.7 kmh NNE 6.0 mph9.7 kmh 30.19 in1022.4 mb 0.00 in0.0 mm 0.00 in/hr0.0 mm/hr 0.00 in0.0 mm
05:00 PM 65.2°F18.4°C 31.1°F-0.5°C 28% 9.2 mph 14.8 kmh 9.2 mph14.8 kmh 30.18 in1022.0 mb 0.00 in0.0 mm 0.00 in/hr0.0 mm/hr 0.00 in0.0 mm
06:00 PM 61.7°F16.5°C 28.1°F-2.2°C 28% 4.0 mph 6.4 kmh 4.0 mph6.4 kmh 30.17 in1021.7 mb 0.00 in0.0 mm 0.00 in/hr0.0 mm/hr 0.00 in0.0 mm
07:04 PM 57.4°F14.1°C 28.4°F-2.0°C 33% 0.7 mph N1.1 kmh N 1.6 mph2.6 kmh 30.17 in1021.7 mb 0.00 in0.0 mm 0.00 in/hr0.0 mm/hr 0.00 in0.0 mm
07:09 PM 57.2°F14.0°C 28.2°F-2.1°C 33% 0.4 mph 0.6 kmh 1.6 mph2.6 kmh 30.17 in1021.7 mb 0.00 in0.0 mm 0.00 in/hr0.0 mm/hr 0.00 in0.0 mm
07:14 PM 57.2°F14.0°C 28.2°F-2.1°C 33% 0.3 mph 0.5 kmh 0.9 mph1.4 kmh 30.16 in1021.3 mb 0.00 in0.0 mm 0.00 in/hr0.0 mm/hr 0.00 in0.0 mm
07:19 PM 56.9°F13.8°C 28.6°F-1.9°C 34% 1.1 mph NNE1.8 kmh NNE 1.6 mph2.6 kmh 30.16 in1021.3 mb 0.00 in0.0 mm 0.00 in/hr0.0 mm/hr 0.00 in0.0 mm
07:24 PM 56.5°F13.6°C 28.3°F-2.1°C 34% 0.6 mph 1.0 kmh 1.6 mph2.6 kmh 30.17 in1021.7 mb 0.00 in0.0 mm 0.00 in/hr0.0 mm/hr 0.00 in0.0 mm
07:29 PM 56.5°F13.6°C 28.3°F-2.1°C 34% 1.2 mph W1.9 kmh W 1.8 mph2.9 kmh 30.17 in1021.7 mb 0.00 in0.0 mm 0.00 in/hr0.0 mm/hr 0.00 in0.0 mm
07:34 PM 56.2°F13.4°C 28.6°F-1.9°C 35% 1.0 mph WSW1.6 kmh WSW 1.8 mph2.9 kmh 30.17 in1021.7 mb 0.00 in0.0 mm 0.00 in/hr0.0 mm/hr 0.00 in0.0 mm
07:39 PM 55.8°F13.2°C 29.0°F-1.7°C 36% 0.3 mph WSW0.5 kmh WSW 1.3 mph2.1 kmh 30.17 in1021.7 mb 0.00 in0.0 mm 0.00 in/hr0.0 mm/hr 0.00 in0.0 mm
07:44 PM 55.6°F13.1°C 28.9°F-1.7°C 36% 0.4 mph WSW0.6 kmh WSW 0.7 mph1.1 kmh 30.17 in1021.7 mb 0.00 in0.0 mm 0.00 in/hr0.0 mm/hr 0.00 in0.0 mm
07:49 PM 55.3°F12.9°C 28.5°F-1.9°C 36% 0.4 mph WSW0.6 kmh WSW 0.7 mph1.1 kmh 30.17 in1021.7 mb 0.00 in0.0 mm 0.00 in/hr0.0 mm/hr 0.00 in0.0 mm
07:54 PM 54.9°F12.7°C 28.9°F-1.7°C 37% 1.1 mph SW1.8 kmh SW 1.6 mph2.6 kmh 30.17 in1021.7 mb 0.00 in0.0 mm 0.00 in/hr0.0 mm/hr 0.00 in0.0 mm
08:00 PM 54.5°F12.5°C 28.6°F-1.9°C 37% 0.6 mph SW1.0 kmh SW 1.6 mph2.6 kmh 30.16 in1021.3 mb 0.00 in0.0 mm 0.00 in/hr0.0 mm/hr 0.00 in0.0 mm
08:05 PM 54.2°F12.3°C 29.0°F-1.7°C 38% 0.7 mph SW1.1 kmh SW 1.6 mph2.6 kmh 30.17 in1021.7 mb 0.00 in0.0 mm 0.00 in/hr0.0 mm/hr 0.00 in0.0 mm
08:10 PM 53.6°F12.0°C 29.2°F-1.6°C 39% 0.5 mph WSW0.8 kmh WSW 1.1 mph1.8 kmh 30.17 in1021.7 mb 0.00 in0.0 mm 0.00 in/hr0.0 mm/hr 0.00 in0.0 mm
08:15 PM 53.3°F11.8°C 29.5°F-1.4°C 40% 0.9 mph SW1.4 kmh SW 1.1 mph1.8 kmh 30.17 in1021.7 mb 0.00 in0.0 mm 0.00 in/hr0.0 mm/hr 0.00 in0.0 mm
08:20 PM 52.9°F11.6°C 29.8°F-1.2°C 41% 0.8 mph SW1.3 kmh SW 1.1 mph1.8 kmh 30.17 in1021.7 mb 0.00 in0.0 mm 0.00 in/hr0.0 mm/hr 0.00 in0.0 mm
08:25 PM 52.4°F11.3°C 29.4°F-1.4°C 41% 1.0 mph SW1.6 kmh SW 1.1 mph1.8 kmh 30.17 in1021.7 mb 0.00 in0.0 mm 0.00 in/hr0.0 mm/hr 0.00 in0.0 mm
08:30 PM 51.8°F11.0°C 29.3°F-1.5°C 42% 1.1 mph SW1.8 kmh SW 1.3 mph2.1 kmh 30.17 in1021.7 mb 0.00 in0.0 mm 0.00 in/hr0.0 mm/hr 0.00 in0.0 mm
08:35 PM 51.5°F10.8°C 29.1°F-1.6°C 42% 1.1 mph SW1.8 kmh SW 1.3 mph2.1 kmh 30.17 in1021.7 mb 0.00 in0.0 mm 0.00 in/hr0.0 mm/hr 0.00 in0.0 mm
08:40 PM 50.9°F10.5°C 29.2°F-1.6°C 43% 1.4 mph SW2.3 kmh SW 2.0 mph3.2 kmh 30.17 in1021.7 mb 0.00 in0.0 mm 0.00 in/hr0.0 mm/hr 0.00 in0.0 mm
08:45 PM 50.6°F10.3°C 29.3°F-1.5°C 44% 1.1 mph SW1.8 kmh SW 2.0 mph3.2 kmh 30.17 in1021.7 mb 0.00 in0.0 mm 0.00 in/hr0.0 mm/hr 0.00 in0.0 mm
08:50 PM 50.0°F10.0°C 29.4°F-1.4°C 45% 0.9 mph SW1.4 kmh SW 2.0 mph3.2 kmh 30.17 in1021.7 mb 0.00 in0.0 mm 0.00 in/hr0.0 mm/hr 0.00 in0.0 mm
08:55 PM 49.7°F9.8°C 30.8°F-0.7°C 48% 1.6 mph SSW2.6 kmh SSW 1.8 mph2.9 kmh 30.17 in1021.7 mb 0.00 in0.0 mm 0.00 in/hr0.0 mm/hr 0.00 in0.0 mm
09:00 PM 49.3°F9.6°C 29.9°F-1.2°C 47% 0.8 mph SW1.3 kmh SW 1.8 mph2.9 kmh 30.17 in1021.7 mb 0.00 in0.0 mm 0.00 in/hr0.0 mm/hr 0.00 in0.0 mm
09:05 PM 49.1°F9.5°C 29.7°F-1.3°C 47% 1.2 mph WSW1.9 kmh WSW 2.5 mph4.0 kmh 30.17 in1021.7 mb 0.00 in0.0 mm 0.00 in/hr0.0 mm/hr 0.00 in0.0 mm
09:10 PM 49.0°F9.4°C 29.5°F-1.4°C 47% 0.7 mph WSW1.1 kmh WSW 2.5 mph4.0 kmh 30.17 in1021.7 mb 0.00 in0.0 mm 0.00 in/hr0.0 mm/hr 0.00 in0.0 mm
09:15 PM 49.0°F9.4°C 29.5°F-1.4°C 47% 1.1 mph WSW1.8 kmh WSW 1.8 mph2.9 kmh 30.18 in1022.0 mb 0.00 in0.0 mm 0.00 in/hr0.0 mm/hr 0.00 in0.0 mm
09:20 PM 49.1°F9.5°C 29.7°F-1.3°C 47% 1.3 mph W2.1 kmh W 2.0 mph3.2 kmh 30.17 in1021.7 mb 0.00 in0.0 mm 0.00 in/hr0.0 mm/hr 0.00 in0.0 mm
09:25 PM 49.1°F9.5°C 29.2°F-1.6°C 46% 0.8 mph W1.3 kmh W 2.0 mph3.2 kmh 30.18 in1022.0 mb 0.00 in0.0 mm 0.00 in/hr0.0 mm/hr 0.00 in0.0 mm
09:30 PM 49.1°F9.5°C 29.2°F-1.6°C 46% 0.5 mph W0.8 kmh W 1.6 mph2.6 kmh 30.18 in1022.0 mb 0.00 in0.0 mm 0.00 in/hr0.0 mm/hr 0.00 in0.0 mm
09:35 PM 49.1°F9.5°C 29.2°F-1.6°C 46% 1.0 mph W1.6 kmh W 1.8 mph2.9 kmh 30.17 in1021.7 mb 0.00 in0.0 mm 0.00 in/hr0.0 mm/hr 0.00 in0.0 mm
09:40 PM 49.3°F9.6°C 29.4°F-1.4°C 46% 0.9 mph WSW1.4 kmh WSW 1.8 mph2.9 kmh 30.17 in1021.7 mb 0.00 in0.0 mm 0.00 in/hr0.0 mm/hr 0.00 in0.0 mm
09:45 PM 49.3°F9.6°C 28.7°F-1.8°C 45% 0.4 mph WSW0.6 kmh WSW 1.6 mph2.6 kmh 30.17 in1021.7 mb 0.00 in0.0 mm 0.00 in/hr0.0 mm/hr 0.00 in0.0 mm
09:50 PM 49.1°F9.5°C 28.6°F-1.9°C 45% 1.0 mph WSW1.6 kmh WSW 1.1 mph1.8 kmh 30.17 in1021.7 mb 0.00 in0.0 mm 0.00 in/hr0.0 mm/hr 0.00 in0.0 mm
09:55 PM 49.0°F9.4°C 29.0°F-1.7°C 46% 1.1 mph SW1.8 kmh SW 1.6 mph2.6 kmh 30.17 in1021.7 mb 0.00 in0.0 mm 0.00 in/hr0.0 mm/hr 0.00 in0.0 mm
10:00 PM 48.4°F9.1°C 29.0°F-1.7°C 47% 1.7 mph SW2.7 kmh SW 1.8 mph2.9 kmh 30.17 in1021.7 mb 0.00 in0.0 mm 0.00 in/hr0.0 mm/hr 0.00 in0.0 mm
10:05 PM 47.9°F8.8°C 28.4°F-2.0°C 47% 1.1 mph WSW1.8 kmh WSW 1.8 mph2.9 kmh 30.17 in1021.7 mb 0.00 in0.0 mm 0.00 in/hr0.0 mm/hr 0.00 in0.0 mm
10:10 PM 47.7°F8.7°C 28.9°F-1.7°C 48% 0.8 mph WSW1.3 kmh WSW 1.6 mph2.6 kmh 30.17 in1021.7 mb 0.00 in0.0 mm 0.00 in/hr0.0 mm/hr 0.00 in0.0 mm
10:15 PM 47.5°F8.6°C 28.7°F-1.8°C 48% 0.6 mph W1.0 kmh W 1.1 mph1.8 kmh 30.17 in1021.7 mb 0.00 in0.0 mm 0.00 in/hr0.0 mm/hr 0.00 in0.0 mm
10:20 PM 47.3°F8.5°C 29.1°F-1.6°C 49% 0.4 mph W0.6 kmh W 0.9 mph1.4 kmh 30.17 in1021.7 mb 0.00 in0.0 mm 0.00 in/hr0.0 mm/hr 0.00 in0.0 mm
10:25 PM 47.3°F8.5°C 29.1°F-1.6°C 49% 0.4 mph W0.6 kmh W 0.7 mph1.1 kmh 30.17 in1021.7 mb 0.00 in0.0 mm 0.00 in/hr0.0 mm/hr 0.00 in0.0 mm
10:30 PM 47.2°F8.4°C 28.9°F-1.7°C 49% Calm Calm 0.7 mph1.1 kmh 30.17 in1021.7 mb 0.00 in0.0 mm 0.00 in/hr0.0 mm/hr 0.00 in0.0 mm
10:35 PM 47.2°F8.4°C 28.9°F-1.7°C 49% 0.3 mph W0.5 kmh W 0.7 mph1.1 kmh 30.16 in1021.3 mb 0.00 in0.0 mm 0.00 in/hr0.0 mm/hr 0.00 in0.0 mm
10:39 PM 47.2°F8.4°C 28.9°F-1.7°C 49% Calm Calm 0.7 mph1.1 kmh 30.16 in1021.3 mb 0.00 in0.0 mm 0.00 in/hr0.0 mm/hr 0.00 in0.0 mm
10:44 PM 47.0°F8.3°C 29.3°F-1.5°C 50% 0.4 mph NW0.6 kmh NW 0.7 mph1.1 kmh 30.16 in1021.3 mb 0.00 in0.0 mm 0.00 in/hr0.0 mm/hr 0.00 in0.0 mm
10:49 PM 47.2°F8.4°C 29.4°F-1.4°C 50% 0.2 mph WNW0.3 kmh WNW 0.9 mph1.4 kmh 30.16 in1021.3 mb 0.00 in0.0 mm 0.00 in/hr0.0 mm/hr 0.00 in0.0 mm
10:54 PM 47.2°F8.4°C 29.9°F-1.2°C 51% 1.2 mph WNW1.9 kmh WNW 1.6 mph2.6 kmh 30.16 in1021.3 mb 0.00 in0.0 mm 0.00 in/hr0.0 mm/hr 0.00 in0.0 mm
10:59 PM 47.2°F8.4°C 29.9°F-1.2°C 51% 0.5 mph WNW0.8 kmh WNW 1.8 mph2.9 kmh 30.16 in1021.3 mb 0.00 in0.0 mm 0.00 in/hr0.0 mm/hr 0.00 in0.0 mm
11:04 PM 47.2°F8.4°C 29.9°F-1.2°C 51% 0.6 mph WNW1.0 kmh WNW 1.8 mph2.9 kmh 30.16 in1021.3 mb 0.00 in0.0 mm 0.00 in/hr0.0 mm/hr 0.00 in0.0 mm
11:09 PM 47.2°F8.4°C 29.9°F-1.2°C 51% 0.6 mph WSW1.0 kmh WSW 1.1 mph1.8 kmh 30.16 in1021.3 mb 0.00 in0.0 mm 0.00 in/hr0.0 mm/hr 0.00 in0.0 mm
11:14 PM 46.8°F8.2°C 29.6°F-1.3°C 51% 0.7 mph WSW1.1 kmh WSW 0.9 mph1.4 kmh 30.16 in1021.3 mb 0.00 in0.0 mm 0.00 in/hr0.0 mm/hr 0.00 in0.0 mm
11:19 PM 46.4°F8.0°C 29.7°F-1.3°C 52% 0.3 mph WSW0.5 kmh WSW 0.7 mph1.1 kmh 30.16 in1021.3 mb 0.00 in0.0 mm 0.00 in/hr0.0 mm/hr 0.00 in0.0 mm
11:24 PM 46.4°F8.0°C 30.2°F-1.0°C 53% 0.4 mph SW0.6 kmh SW 0.4 mph0.6 kmh 30.16 in1021.3 mb 0.00 in0.0 mm 0.00 in/hr0.0 mm/hr 0.00 in0.0 mm
11:29 PM 46.3°F7.9°C 30.0°F-1.1°C 53% 0.5 mph SW0.8 kmh SW 0.7 mph1.1 kmh 30.16 in1021.3 mb 0.00 in0.0 mm 0.00 in/hr0.0 mm/hr 0.00 in0.0 mm
11:34 PM 46.1°F7.8°C 30.2°F-1.0°C 54% 0.7 mph WSW1.1 kmh WSW 1.3 mph2.1 kmh 30.16 in1021.3 mb 0.00 in0.0 mm 0.00 in/hr0.0 mm/hr 0.00 in0.0 mm
11:39 PM 45.7°F7.6°C 30.4°F-0.9°C 55% 0.7 mph SW1.1 kmh SW 1.3 mph2.1 kmh 30.16 in1021.3 mb 0.00 in0.0 mm 0.00 in/hr0.0 mm/hr 0.00 in0.0 mm
11:44 PM 45.7°F7.6°C 30.9°F-0.6°C 56% 0.9 mph SW1.4 kmh SW 1.3 mph2.1 kmh 30.16 in1021.3 mb 0.00 in0.0 mm 0.00 in/hr0.0 mm/hr 0.00 in0.0 mm
11:49 PM 45.5°F7.5°C 31.1°F-0.5°C 57% 0.7 mph SSW1.1 kmh SSW 1.6 mph2.6 kmh 30.16 in1021.3 mb 0.00 in0.0 mm 0.00 in/hr0.0 mm/hr 0.00 in0.0 mm
11:54 PM 45.2°F7.3°C 30.8°F-0.7°C 57% 0.3 mph SW0.5 kmh SW 1.6 mph2.6 kmh 30.16 in1021.3 mb 0.00 in0.0 mm 0.00 in/hr0.0 mm/hr 0.00 in0.0 mm
11:59 PM 45.0°F7.2°C 30.3°F-0.9°C 56% 0.9 mph SW1.4 kmh SW 1.1 mph1.8 kmh 30.16 in1021.3 mb 0.00 in0.0 mm 0.00 in/hr0.0 mm/hr 0.00 in0.0 mm